Terminal Aerodrome Forecast
Issued by NWS

Home | Current Version | Previous Version | Text Only | Print | Product List | Glossary On
Versions: 1 2 3 4 5 6 7 8 9 10 11 12 13 14 15 16 17 18 19
000
FTUS43 KEAX 231100
TAFSTJ
TAF
KSTJ 231139Z 2312/2412 25009KT P6SM SCT025 BKN040
     FM231500 29007KT P6SM BKN025
     FM232200 33010KT 5SM -SHRA OVC015
     FM240200 34013KT 2SM -SHSN OVC008=

USA.gov is the U.S. government's official web portal to all federal, state and local government web resources and services.